Terminal Aerodrome Forecast
Issued by NWS

Home | Current Version | Previous Version | Text Only | Print | Product List | Glossary On
Versions: 1 2 3 4 5 6 7 8 9 10 11 12 13 14 15 16 17 18 19 20 21 22 23 24 25
000
FTUS41 KGYX 181100
TAFLEB
TAF
KLEB 181120Z 1812/1912 VRB03KT P6SM SCT200
     FM181600 18007KT P6SM BKN200
     FM190000 VRB03KT P6SM SCT035 BKN100
     FM190500 VRB03KT 5SM -SHRASN BKN025=

USA.gov is the U.S. government's official web portal to all federal, state and local government web resources and services.